createdAt,value
2023-02-23T00:00:32.049Z,9.63
2023-02-23T00:03:01.526Z,8.07
2023-02-23T00:05:29.936Z,9.07
2023-02-23T00:07:57.508Z,8.73
2023-02-23T00:10:30.462Z,10.53
2023-02-23T00:12:59.028Z,8.67
2023-02-23T00:15:29.949Z,7.90
2023-02-23T00:17:58.112Z,7.67
2023-02-23T00:20:27.981Z,8.10
2023-02-23T00:22:58.497Z,10.73
2023-02-23T00:25:26.258Z,8.33
2023-02-23T00:27:54.900Z,8.63
2023-02-23T00:30:23.846Z,9.00
2023-02-23T00:32:52.576Z,8.27
2023-02-23T00:35:20.064Z,9.07
2023-02-23T00:37:48.373Z,8.63
2023-02-23T00:40:16.893Z,8.07
2023-02-23T00:42:45.542Z,8.87
2023-02-23T00:45:14.105Z,8.10
2023-02-23T00:47:42.504Z,7.67
2023-02-23T00:50:14.891Z,10.53
2023-02-23T00:52:43.619Z,10.40
2023-02-23T00:55:12.278Z,8.97
2023-02-23T00:57:40.650Z,9.70
2023-02-23T01:00:20.532Z,8.77
2023-02-23T01:02:49.331Z,8.17
2023-02-23T01:05:16.960Z,8.50
2023-02-23T01:07:47.700Z,9.70
2023-02-23T01:10:21.191Z,9.17
2023-02-23T01:12:49.686Z,10.80
2023-02-23T01:15:17.908Z,8.57
2023-02-23T01:17:45.899Z,9.07
2023-02-23T01:20:20.375Z,9.40
2023-02-23T01:22:49.373Z,8.77
2023-02-23T01:25:17.131Z,8.13
2023-02-23T01:27:44.892Z,10.13
2023-02-23T01:30:14.902Z,8.77
2023-02-23T01:32:43.792Z,8.23
2023-02-23T01:35:12.736Z,9.33
2023-02-23T01:37:41.163Z,8.43
2023-02-23T01:40:29.112Z,8.73
2023-02-23T01:42:58.537Z,9.03
2023-02-23T01:45:37.774Z,8.73
2023-02-23T01:48:16.151Z,8.00
2023-02-23T01:50:52.840Z,8.77
2023-02-23T01:53:23.941Z,8.63
2023-02-23T01:55:55.185Z,8.47
2023-02-23T01:58:24.082Z,8.90
2023-02-23T02:00:55.580Z,9.27
2023-02-23T02:03:35.276Z,8.60
2023-02-23T02:06:03.731Z,8.07
2023-02-23T02:08:32.502Z,9.47
2023-02-23T02:11:00.114Z,8.93
2023-02-23T02:13:29.816Z,8.63
2023-02-23T02:16:06.510Z,8.63
2023-02-23T02:18:43.158Z,8.07
2023-02-23T02:21:29.343Z,10.07
2023-02-23T02:24:15.644Z,8.97
2023-02-23T02:26:58.201Z,8.93
2023-02-23T02:29:43.772Z,9.07
2023-02-23T02:32:11.338Z,8.50
2023-02-23T02:35:01.958Z,8.77
2023-02-23T02:37:29.321Z,9.43
2023-02-23T02:40:18.510Z,8.03
2023-02-23T02:42:45.872Z,8.13
2023-02-23T02:45:59.038Z,8.50
2023-02-23T02:48:42.350Z,8.80
2023-02-23T02:51:18.485Z,8.93
2023-02-23T02:54:06.854Z,8.00
2023-02-23T02:56:40.517Z,8.10
2023-02-23T02:59:31.304Z,10.27
2023-02-23T03:02:17.427Z,9.00
2023-02-23T03:05:03.979Z,9.13
2023-02-23T03:08:00.897Z,10.57
2023-02-23T03:10:53.078Z,9.13
2023-02-23T03:13:39.148Z,8.93
2023-02-23T03:16:28.210Z,9.97
2023-02-23T03:19:35.417Z,9.83
2023-02-23T03:22:26.844Z,8.50
2023-02-23T03:25:25.044Z,8.63
2023-02-23T03:28:22.758Z,8.63
2023-02-23T03:31:32.762Z,9.17
2023-02-23T03:34:31.767Z,9.83
2023-02-23T03:37:23.953Z,10.47
2023-02-23T03:40:22.635Z,9.07
2023-02-23T03:43:11.542Z,8.90
2023-02-23T03:45:57.905Z,8.90
2023-02-23T03:48:45.343Z,8.70
2023-02-23T03:51:32.282Z,10.40
2023-02-23T03:54:36.894Z,9.30
2023-02-23T03:57:24.087Z,10.27
2023-02-23T04:00:13.644Z,9.20
2023-02-23T04:03:01.077Z,8.63
2023-02-23T04:05:48.871Z,9.83
2023-02-23T04:08:38.020Z,10.03
2023-02-23T04:11:43.582Z,8.93
2023-02-23T04:14:15.309Z,10.10
2023-02-23T04:16:43.443Z,9.77
2023-02-23T04:19:10.868Z,9.27
2023-02-23T04:21:38.301Z,9.97
2023-02-23T04:24:05.713Z,8.57
2023-02-23T04:26:33.264Z,9.30
2023-02-23T04:29:00.579Z,9.00
2023-02-23T04:31:28.074Z,9.83
2023-02-23T04:33:55.442Z,9.83
2023-02-23T04:36:24.272Z,9.73
2023-02-23T04:38:51.665Z,10.50
2023-02-23T04:41:20.260Z,10.70
2023-02-23T04:43:47.715Z,9.90
2023-02-23T04:54:17.694Z,9.93
2023-02-23T04:56:45.431Z,10.07
2023-02-23T04:59:13.467Z,10.90
2023-02-23T05:01:41.368Z,8.93
2023-02-23T05:04:09.031Z,10.57
2023-02-23T05:06:36.823Z,10.63
2023-02-23T05:09:06.382Z,9.50
2023-02-23T05:11:34.286Z,9.60
2023-02-23T05:14:02.038Z,9.73
2023-02-23T05:16:29.781Z,9.03
2023-02-23T05:18:57.803Z,9.73
2023-02-23T05:21:25.535Z,9.77
2023-02-23T05:23:53.257Z,10.60
2023-02-23T05:26:21.392Z,10.17
2023-02-23T05:28:49.083Z,10.03
2023-02-23T05:31:17.694Z,9.73
2023-02-23T05:33:45.976Z,10.30
2023-02-23T05:36:17.741Z,10.83
2023-02-23T05:38:46.232Z,9.50
2023-02-23T05:41:15.208Z,9.60
2023-02-23T05:43:43.059Z,8.87
2023-02-23T05:46:11.729Z,10.20
2023-02-23T05:48:39.827Z,9.57
2023-02-23T05:51:08.737Z,10.83
2023-02-23T05:53:36.581Z,9.60
2023-02-23T05:56:08.871Z,10.43
2023-02-23T05:58:36.639Z,10.77
2023-02-23T06:01:04.895Z,11.83
2023-02-23T06:03:32.687Z,10.50
2023-02-23T06:06:00.497Z,11.03
2023-02-23T06:08:28.632Z,9.83
2023-02-23T06:10:56.416Z,13.33
2023-02-23T06:13:24.186Z,11.90
2023-02-23T06:15:51.921Z,11.57
2023-02-23T06:18:20.720Z,11.87
2023-02-23T06:20:48.959Z,10.13
2023-02-23T06:23:16.664Z,9.47
2023-02-23T06:25:44.652Z,12.53
2023-02-23T06:28:12.540Z,10.93
2023-02-23T06:30:40.835Z,11.20
2023-02-23T06:33:08.823Z,10.03
2023-02-23T06:35:39.743Z,11.73
2023-02-23T06:38:07.515Z,12.20
2023-02-23T06:40:35.255Z,11.00
2023-02-23T06:43:03.856Z,12.07
2023-02-23T06:45:32.099Z,10.80
2023-02-23T06:48:00.627Z,11.80
2023-02-23T06:50:29.059Z,10.40
2023-02-23T06:52:57.742Z,10.63
2023-02-23T06:55:25.705Z,12.20
2023-02-23T06:57:54.492Z,10.83
2023-02-23T07:00:22.502Z,10.17
2023-02-23T07:02:50.181Z,11.67
2023-02-23T07:05:18.002Z,11.63
2023-02-23T07:07:45.715Z,11.43
2023-02-23T07:10:13.592Z,9.70
2023-02-23T07:12:41.292Z,10.50
2023-02-23T07:15:10.236Z,10.13
2023-02-23T07:17:38.159Z,10.20
2023-02-23T07:20:06.268Z,10.97
2023-02-23T07:22:34.437Z,11.13
2023-02-23T07:25:02.196Z,12.23
2023-02-23T07:27:30.032Z,13.03
2023-02-23T07:29:57.688Z,12.03
2023-02-23T07:32:25.600Z,12.00
2023-02-23T07:34:54.022Z,11.40
2023-02-23T07:37:22.708Z,11.03
2023-02-23T07:39:50.758Z,12.30
2023-02-23T07:42:18.720Z,11.13
2023-02-23T07:44:46.912Z,10.77
2023-02-23T07:47:14.640Z,13.57
2023-02-23T07:49:42.741Z,11.97
2023-02-23T07:52:10.509Z,12.97
2023-02-23T07:54:38.362Z,14.33
2023-02-23T07:57:06.111Z,13.40
2023-02-23T07:59:33.937Z,12.40
2023-02-23T08:02:01.616Z,12.77
2023-02-23T08:04:29.438Z,14.67
2023-02-23T08:06:57.117Z,13.93
2023-02-23T08:09:24.874Z,12.63
2023-02-23T08:11:52.549Z,14.43
2023-02-23T08:14:23.813Z,13.90
2023-02-23T08:16:51.808Z,14.07
2023-02-23T08:19:23.058Z,13.73
2023-02-23T08:21:51.321Z,14.30
2023-02-23T08:24:19.213Z,15.77
2023-02-23T08:26:46.923Z,13.70
2023-02-23T08:29:14.690Z,17.50
2023-02-23T08:31:42.561Z,16.07
2023-02-23T08:34:10.517Z,14.50
2023-02-23T08:36:38.241Z,16.30
2023-02-23T08:39:07.644Z,14.60
2023-02-23T08:41:35.532Z,13.77
2023-02-23T08:44:03.224Z,15.47
2023-02-23T08:46:31.212Z,14.70
2023-02-23T08:48:59.127Z,17.93
2023-02-23T08:51:26.874Z,15.33
2023-02-23T08:53:55.386Z,15.87
2023-02-23T08:56:25.392Z,16.97
2023-02-23T08:58:53.322Z,17.70
2023-02-23T09:01:22.641Z,19.07
2023-02-23T09:03:50.495Z,22.40
2023-02-23T09:06:20.414Z,17.63
2023-02-23T09:08:48.237Z,24.87
2023-02-23T09:11:16.076Z,23.10
2023-02-23T09:13:44.793Z,21.47
2023-02-23T09:16:12.885Z,22.20
2023-02-23T09:18:40.797Z,24.60
2023-02-23T09:21:10.965Z,24.60
2023-02-23T09:23:39.145Z,26.67
2023-02-23T09:26:07.960Z,23.67
2023-02-23T09:28:38.388Z,21.57
2023-02-23T09:31:07.718Z,27.00
2023-02-23T09:33:35.889Z,24.23
2023-02-23T09:36:12.988Z,25.87
2023-02-23T09:38:41.112Z,25.97
2023-02-23T09:41:20.834Z,26.83
2023-02-23T09:44:08.846Z,25.60
2023-02-23T09:46:59.598Z,28.03
2023-02-23T09:49:30.033Z,26.93
2023-02-23T09:51:59.364Z,31.40
2023-02-23T09:54:29.974Z,26.90
2023-02-23T09:56:58.584Z,28.23
2023-02-23T09:59:29.111Z,29.20
2023-02-23T10:02:05.768Z,32.37
2023-02-23T10:04:36.612Z,31.10
2023-02-23T10:07:23.421Z,30.73
2023-02-23T10:10:09.681Z,31.90
2023-02-23T10:12:56.321Z,31.97
2023-02-23T10:15:36.075Z,30.77
2023-02-23T10:18:40.614Z,32.63
2023-02-23T10:21:17.224Z,34.20
2023-02-23T10:24:06.138Z,31.30
2023-02-23T10:26:52.139Z,30.93
2023-02-23T10:29:38.330Z,38.30
2023-02-23T10:32:22.722Z,35.77
2023-02-23T10:34:53.900Z,33.20
2023-02-23T10:37:21.920Z,35.20
2023-02-23T10:39:51.854Z,32.27
2023-02-23T10:42:30.269Z,34.63
2023-02-23T10:44:58.518Z,31.60
2023-02-23T10:47:33.766Z,36.30
2023-02-23T10:50:01.838Z,37.13
2023-02-23T10:52:41.526Z,37.40
2023-02-23T10:55:22.884Z,39.17
2023-02-23T10:57:52.580Z,33.40
2023-02-23T11:00:33.129Z,36.67
2023-02-23T11:03:04.435Z,34.37
2023-02-23T11:05:32.276Z,37.87
2023-02-23T11:08:12.080Z,38.20
2023-02-23T11:10:40.051Z,36.73
2023-02-23T11:13:22.152Z,36.83
2023-02-23T11:15:51.129Z,36.43
2023-02-23T11:18:26.244Z,38.40
2023-02-23T11:20:54.895Z,35.67
2023-02-23T11:23:29.487Z,35.90
2023-02-23T11:26:00.426Z,37.53
2023-02-23T11:28:38.949Z,31.50
2023-02-23T11:31:19.165Z,37.33
2023-02-23T11:33:47.761Z,37.97
2023-02-23T11:36:29.995Z,36.27
2023-02-23T11:39:02.774Z,38.77
2023-02-23T11:41:33.105Z,37.20
2023-02-23T11:44:04.329Z,37.17
2023-02-23T11:46:36.651Z,38.60
2023-02-23T11:49:08.843Z,35.20
2023-02-23T11:51:38.095Z,34.63
2023-02-23T11:54:06.397Z,39.13
2023-02-23T11:56:35.357Z,36.40
2023-02-23T11:59:07.557Z,34.77
2023-02-23T12:01:44.257Z,36.30
2023-02-23T12:04:30.628Z,37.90
2023-02-23T12:07:17.065Z,34.97
2023-02-23T12:14:08.416Z,31.23
2023-02-23T12:16:48.914Z,34.87
2023-02-23T12:19:23.045Z,37.80
2023-02-23T12:21:53.101Z,37.60
2023-02-23T12:24:38.080Z,35.53
2023-02-23T12:27:30.639Z,37.70
2023-02-23T12:41:34.203Z,37.23
2023-02-23T12:51:27.925Z,38.47
2023-02-23T12:58:28.672Z,42.13
2023-02-23T13:01:12.786Z,40.50
2023-02-23T13:07:05.066Z,41.23
2023-02-23T13:09:56.247Z,38.67
2023-02-23T13:12:29.782Z,40.67
2023-02-23T13:15:42.740Z,39.73
2023-02-23T13:18:24.280Z,37.23
2023-02-23T13:21:00.634Z,38.43
2023-02-23T13:23:48.844Z,40.77
2023-02-23T13:26:41.172Z,45.63
2023-02-23T13:29:23.195Z,40.03
2023-02-23T13:31:50.885Z,30.00
2023-02-23T13:34:27.154Z,40.57
2023-02-23T13:36:56.469Z,41.40
2023-02-23T13:39:50.615Z,40.87
2023-02-23T13:42:45.033Z,42.70
2023-02-23T13:45:43.156Z,41.87
2023-02-23T13:48:18.840Z,40.83
2023-02-23T13:50:57.794Z,39.67
2023-02-23T13:53:59.872Z,38.50
2023-02-23T13:56:30.034Z,41.43
2023-02-23T13:59:08.446Z,39.90
2023-02-23T14:01:43.853Z,42.30
2023-02-23T14:04:35.521Z,40.10
2023-02-23T14:07:32.379Z,38.80
2023-02-23T14:10:06.616Z,40.73
2023-02-23T14:12:40.849Z,38.10
2023-02-23T14:15:27.387Z,44.03
2023-02-23T14:18:02.670Z,43.87
2023-02-23T14:20:38.592Z,40.90
2023-02-23T14:23:21.317Z,45.70
2023-02-23T14:26:08.615Z,39.17
2023-02-23T14:28:39.381Z,42.43
2023-02-23T14:31:12.689Z,46.07
2023-02-23T14:33:42.852Z,44.40
2023-02-23T14:36:22.155Z,39.53
2023-02-23T14:39:00.446Z,37.60
2023-02-23T14:41:34.623Z,38.17
2023-02-23T14:44:05.242Z,36.50
2023-02-23T14:46:35.198Z,37.23
2023-02-23T14:49:11.866Z,37.17
2023-02-23T14:51:42.553Z,31.50
2023-02-23T14:54:15.839Z,35.17
2023-02-23T14:56:48.097Z,32.07
2023-02-23T14:59:23.580Z,29.73
2023-02-23T15:01:51.924Z,31.33
2023-02-23T15:04:25.782Z,31.47
2023-02-23T15:07:00.256Z,29.77
2023-02-23T15:09:35.410Z,29.03
2023-02-23T15:12:12.967Z,29.87
2023-02-23T15:14:41.614Z,29.07
2023-02-23T15:17:15.974Z,28.30
2023-02-23T15:19:45.019Z,26.80
2023-02-23T15:22:32.611Z,29.63
2023-02-23T15:25:01.567Z,29.00
2023-02-23T15:27:45.443Z,29.37
2023-02-23T15:30:23.016Z,26.70
2023-02-23T15:33:03.242Z,27.57
2023-02-23T15:35:31.365Z,28.73
2023-02-23T15:38:11.437Z,26.93
2023-02-23T15:40:45.973Z,26.23
2023-02-23T15:43:13.229Z,23.77
2023-02-23T15:45:50.081Z,28.80
2023-02-23T15:48:22.955Z,24.87
2023-02-23T15:50:53.378Z,25.87
2023-02-23T15:53:41.209Z,23.43
2023-02-23T15:56:20.464Z,25.73
2023-02-23T15:58:57.060Z,22.70
2023-02-23T16:01:30.421Z,22.37
2023-02-23T16:04:08.157Z,23.23
2023-02-23T16:06:52.821Z,23.60
2023-02-23T16:09:25.836Z,22.33
2023-02-23T16:12:02.472Z,22.13
2023-02-23T16:14:35.516Z,22.67
2023-02-23T16:17:11.608Z,20.43
2023-02-23T16:19:41.620Z,21.77
2023-02-23T16:22:18.473Z,19.07
2023-02-23T16:24:45.613Z,20.90
2023-02-23T16:27:12.968Z,20.87
2023-02-23T16:29:42.149Z,17.37
2023-02-23T16:32:19.606Z,17.50
2023-02-23T16:34:51.355Z,19.40
2023-02-23T16:37:25.976Z,19.60
2023-02-23T16:39:55.918Z,19.10
2023-02-23T16:42:32.891Z,18.23
2023-02-23T16:45:00.965Z,17.17
2023-02-23T16:47:28.015Z,18.07
2023-02-23T16:49:55.021Z,16.87
2023-02-23T16:52:25.196Z,15.87
2023-02-23T16:54:55.324Z,15.30
2023-02-23T16:57:29.318Z,15.97
2023-02-23T16:59:57.624Z,15.67
2023-02-23T17:02:24.953Z,15.23
2023-02-23T17:04:52.922Z,14.93
2023-02-23T17:07:22.913Z,15.90
2023-02-23T17:09:51.136Z,16.00
2023-02-23T17:12:20.115Z,14.77
2023-02-23T17:14:49.192Z,15.50
2023-02-23T17:17:19.094Z,14.70
2023-02-23T17:19:46.807Z,17.13
2023-02-23T17:22:14.813Z,15.10
2023-02-23T17:24:43.346Z,17.83
2023-02-23T17:27:10.647Z,14.47
2023-02-23T17:29:37.726Z,14.63
2023-02-23T17:32:05.110Z,14.83
2023-02-23T17:34:32.327Z,16.17
2023-02-23T17:36:59.396Z,15.47
2023-02-23T17:39:28.352Z,14.83
2023-02-23T17:41:55.883Z,14.90
2023-02-23T17:44:23.375Z,13.77
2023-02-23T17:46:50.418Z,12.63
2023-02-23T17:49:17.428Z,15.90
2023-02-23T17:51:44.531Z,17.33
2023-02-23T17:54:11.645Z,15.07
2023-02-23T17:56:38.892Z,15.27
2023-02-23T17:59:05.931Z,14.97
2023-02-23T18:01:33.013Z,15.87
2023-02-23T18:04:00.798Z,15.77
2023-02-23T18:06:28.746Z,15.70
2023-02-23T18:08:56.257Z,15.20
2023-02-23T18:11:23.891Z,14.37
2023-02-23T18:13:51.544Z,15.33
2023-02-23T18:16:20.155Z,14.43
2023-02-23T18:18:48.892Z,12.70
2023-02-23T18:21:19.128Z,14.43
2023-02-23T18:23:46.931Z,13.90
2023-02-23T18:26:17.087Z,12.87
2023-02-23T18:28:45.906Z,13.23
2023-02-23T18:31:19.766Z,13.87
2023-02-23T18:33:50.064Z,11.33
2023-02-23T18:36:21.767Z,14.57
2023-02-23T18:38:49.359Z,13.53
2023-02-23T18:41:17.058Z,13.40
2023-02-23T18:43:44.380Z,12.67
2023-02-23T18:46:13.281Z,13.47
2023-02-23T18:48:41.318Z,13.67
2023-02-23T18:51:14.203Z,12.67
2023-02-23T18:53:42.026Z,14.47
2023-02-23T18:56:15.106Z,12.37
2023-02-23T18:58:44.714Z,14.43
2023-02-23T19:01:13.617Z,15.13
2023-02-23T19:03:41.730Z,11.43
2023-02-23T19:06:10.611Z,12.27
2023-02-23T19:08:38.065Z,14.03
2023-02-23T19:11:05.422Z,14.73
2023-02-23T19:13:32.802Z,13.77
2023-02-23T19:16:07.106Z,14.23
2023-02-23T19:18:35.800Z,13.73
2023-02-23T19:21:03.933Z,13.93
2023-02-23T19:23:31.733Z,14.17
2023-02-23T19:26:02.515Z,13.83
2023-02-23T19:28:30.309Z,12.30
2023-02-23T19:31:07.219Z,15.13
2023-02-23T19:33:35.451Z,11.73
2023-02-23T19:36:09.008Z,15.90
2023-02-23T19:38:36.042Z,12.77
2023-02-23T19:41:07.821Z,13.87
2023-02-23T19:43:34.962Z,13.53
2023-02-23T19:46:11.331Z,15.07
2023-02-23T19:48:38.712Z,12.50
2023-02-23T19:51:10.249Z,13.30
2023-02-23T19:53:37.736Z,13.20
2023-02-23T19:56:08.429Z,13.83
2023-02-23T19:58:36.443Z,13.27
2023-02-23T20:01:09.451Z,13.83
2023-02-23T20:03:39.643Z,12.63
2023-02-23T20:06:07.599Z,11.83
2023-02-23T20:08:34.812Z,11.73
2023-02-23T20:11:06.710Z,14.67
2023-02-23T20:13:34.808Z,14.60
2023-02-23T20:16:09.108Z,13.03
2023-02-23T20:18:38.596Z,13.80
2023-02-23T20:21:13.697Z,15.50
2023-02-23T20:23:42.173Z,14.07
2023-02-23T20:26:12.256Z,14.60
2023-02-23T20:28:40.432Z,12.67
2023-02-23T20:31:26.602Z,12.70
2023-02-23T20:33:56.163Z,12.70
2023-02-23T20:36:24.311Z,14.30
2023-02-23T20:38:51.829Z,13.93
2023-02-23T20:41:20.255Z,16.70
2023-02-23T20:43:47.752Z,14.27
2023-02-23T20:46:17.277Z,15.40
2023-02-23T20:48:44.670Z,16.03
2023-02-23T20:51:19.106Z,13.00
2023-02-23T20:53:48.740Z,15.00
2023-02-23T20:56:17.626Z,14.17
2023-02-23T20:58:45.252Z,14.13
2023-02-23T21:01:18.501Z,13.97
2023-02-23T21:03:46.395Z,14.27
2023-02-23T21:06:13.550Z,13.20
2023-02-23T21:08:42.327Z,13.63
2023-02-23T21:11:09.395Z,15.73
2023-02-23T21:13:36.985Z,13.63
2023-02-23T21:16:04.228Z,12.07
2023-02-23T21:18:31.844Z,12.93
2023-02-23T21:21:10.039Z,12.47
2023-02-23T21:23:44.990Z,14.90
2023-02-23T21:26:16.022Z,13.77
2023-02-23T21:28:46.621Z,14.90
2023-02-23T21:31:15.347Z,13.83
2023-02-23T21:33:44.017Z,15.10
2023-02-23T21:36:12.654Z,13.27
2023-02-23T21:38:42.185Z,14.13
2023-02-23T21:41:10.366Z,14.97
2023-02-23T21:43:38.857Z,14.07
2023-02-23T21:46:24.823Z,16.37
2023-02-23T21:48:52.026Z,14.67
2023-02-23T21:51:19.683Z,14.60
2023-02-23T21:53:47.094Z,15.63
2023-02-23T21:56:17.045Z,15.50
2023-02-23T21:58:47.545Z,14.53
2023-02-23T22:01:17.142Z,13.93
2023-02-23T22:03:45.899Z,14.77
2023-02-23T22:06:36.061Z,15.33
2023-02-23T22:09:05.219Z,13.90
2023-02-23T22:11:37.397Z,15.87
2023-02-23T22:14:10.224Z,17.63
2023-02-23T22:16:41.856Z,15.67
2023-02-23T22:19:09.581Z,16.63
2023-02-23T22:21:38.858Z,15.40
2023-02-23T22:24:06.685Z,17.47
2023-02-23T22:26:36.098Z,16.87
2023-02-23T22:29:04.383Z,13.40
2023-02-23T22:31:31.709Z,15.97
2023-02-23T22:33:58.821Z,18.57
2023-02-23T22:36:25.906Z,15.20
2023-02-23T22:38:52.872Z,16.50
2023-02-23T22:41:20.187Z,14.20
2023-02-23T22:43:47.687Z,14.57
2023-02-23T22:46:16.505Z,13.73
2023-02-23T22:48:45.050Z,14.03
2023-02-23T22:51:14.165Z,14.70
2023-02-23T22:53:41.770Z,14.90
2023-02-23T22:56:09.853Z,14.83
2023-02-23T22:58:37.134Z,15.60
2023-02-23T23:01:06.196Z,15.47
2023-02-23T23:03:40.840Z,18.37
2023-02-23T23:06:10.234Z,17.07
2023-02-23T23:08:40.777Z,15.97
2023-02-23T23:11:11.169Z,14.80
2023-02-23T23:13:44.859Z,16.93
2023-02-23T23:16:25.553Z,18.17
2023-02-23T23:19:12.303Z,16.67
2023-02-23T23:21:41.617Z,15.90
2023-02-23T23:24:13.469Z,17.00
2023-02-23T23:26:42.968Z,20.27
2023-02-23T23:29:12.969Z,23.40
2023-02-23T23:31:45.427Z,18.70
2023-02-23T23:34:14.003Z,16.13
2023-02-23T23:36:46.090Z,22.10
2023-02-23T23:39:16.457Z,22.83
2023-02-23T23:41:46.490Z,23.97
2023-02-23T23:44:16.713Z,25.83
2023-02-23T23:46:45.098Z,23.20
2023-02-23T23:49:16.027Z,21.07
2023-02-23T23:51:50.293Z,19.70
2023-02-23T23:54:22.965Z,22.87
2023-02-23T23:56:50.863Z,20.73
2023-02-23T23:59:21.423Z,21.47
